KNPA/NPA METAR and TAF weather

Enter ICAO airport designator
Station Type Date Time Source
KNPA METAR 2019/12/09 21:56 UTC NOAA

KNPA 092156Z 19005KT 10SM SCT032 SCT060 BKN250 22/19 A2997 RMK SLP150 T02170189


Station Type Date Time Source
KNPA Decoded METAR 2019/12/09 21:56 UTC NOAA

Pensacola, Naval Air Station, FL, United States (KNPA) 30-21-22N 087-19-24W 10M
Dec 09, 2019 - 04:56 PM EST / 2019.12.09 2156 UTC
Wind: from the S (190 degrees) at 6 MPH (5 KT):0
Visibility: 10 mile(s):0
Sky conditions: mostly cloudy
Temperature: 71.1 F (21.7 C)
Dew Point: 66.0 F (18.9 C)
Relative Humidity: 84%
Pressure (altimeter): 29.97 in. Hg (1014 hPa)
ob: KNPA 092156Z 19005KT 10SM SCT032 SCT060 BKN250 22/19 A2997 RMK SLP150 T02170189
cycle: 22

Station Type Date Time Source
KNPA TAF 2019/12/09 15:06 UTC NOAA

TAF KNPA 0915/1015 21008KT 9999 SCT020 BKN250 QNH2997INS
FM092100 21008KT 9999 BKN020 BKN250 QNH2997INS
FM100300 21005KT 6000 BR SCT005 BKN015 QNH3000INS
TEMPO 1003/1009 3200 BR BKN005
FM100900 VRB03KT 1600 BR BKN005 OVC015 QNH3000INS
TEMPO 1009/1014 0400 FG VV002
FM101400 21007KT 9999 BKN015 BKN250 QNH3002INS T23/0919Z T17/1012Z FN20033

Example: see airport list